createdAt,value
2018-05-16T00:04:03.310Z,11.5
2018-05-16T00:09:03.306Z,11.5
2018-05-16T00:14:15.143Z,11.4
2018-05-16T00:19:14.944Z,11.5
2018-05-16T00:24:14.854Z,11.5
2018-05-16T00:29:14.860Z,11.5
2018-05-16T00:34:14.866Z,11.4
2018-05-16T00:39:14.977Z,11.5
2018-05-16T00:44:14.861Z,11.5
2018-05-16T00:49:15.915Z,11.5
2018-05-16T00:54:15.635Z,11.5
2018-05-16T00:59:28.057Z,11.5
2018-05-16T01:04:27.776Z,11.5
2018-05-16T01:09:27.784Z,11.4
2018-05-16T01:14:27.787Z,11.4
2018-05-16T01:19:27.789Z,11.4
2018-05-16T01:24:27.801Z,11.5
2018-05-16T01:29:27.797Z,11.5
2018-05-16T01:34:27.814Z,11.5
2018-05-16T01:39:28.014Z,11.4
2018-05-16T01:44:39.732Z,11.5
2018-05-16T01:49:39.431Z,11.5
2018-05-16T01:54:39.436Z,11.5
2018-05-16T01:59:39.441Z,11.5
2018-05-16T02:04:39.858Z,11.6
2018-05-16T02:09:39.685Z,11.6
2018-05-16T02:14:39.680Z,11.6
2018-05-16T02:19:39.807Z,11.6
2018-05-16T02:24:39.995Z,11.6
2018-05-16T02:29:51.600Z,11.5
2018-05-16T02:34:51.325Z,11.5
2018-05-16T02:39:51.455Z,11.5
2018-05-16T02:44:51.488Z,11.6
2018-05-16T02:49:51.539Z,11.6
2018-05-16T02:54:51.344Z,11.6
2018-05-16T02:59:51.327Z,11.6
2018-05-16T03:04:51.675Z,11.7
2018-05-16T03:09:51.565Z,11.7
2018-05-16T03:15:03.643Z,11.7
2018-05-16T03:20:03.361Z,11.7
2018-05-16T03:25:03.368Z,11.7
2018-05-16T03:30:03.357Z,11.7
2018-05-16T03:35:03.367Z,11.7
2018-05-16T03:40:03.377Z,11.7
2018-05-16T03:45:03.369Z,11.7
2018-05-16T03:50:03.388Z,11.7
2018-05-16T03:55:03.395Z,11.7
2018-05-16T04:00:16.684Z,11.8
2018-05-16T04:05:16.623Z,11.8
2018-05-16T04:10:16.381Z,11.8
2018-05-16T04:15:16.457Z,11.8
2018-05-16T04:20:16.644Z,11.8
2018-05-16T04:25:16.644Z,11.8
2018-05-16T04:30:16.668Z,11.8
2018-05-16T04:35:16.609Z,11.8
2018-05-16T04:40:16.770Z,11.8
2018-05-16T04:45:28.257Z,11.8
2018-05-16T04:50:28.004Z,11.8
2018-05-16T04:55:28.002Z,11.8
2018-05-16T05:00:28.003Z,11.8
2018-05-16T05:05:28.018Z,11.9
2018-05-16T05:10:28.006Z,11.9
2018-05-16T05:15:28.145Z,11.9
2018-05-16T05:20:28.012Z,11.9
2018-05-16T05:25:28.014Z,12
2018-05-16T05:30:39.528Z,12
2018-05-16T05:35:39.255Z,12
2018-05-16T05:40:39.377Z,12.1
2018-05-16T05:45:39.412Z,12.1
2018-05-16T05:50:39.388Z,12.1
2018-05-16T05:55:39.515Z,12.2
2018-05-16T06:00:39.231Z,12.3
2018-05-16T06:05:39.277Z,12.2
2018-05-16T06:10:39.279Z,12.1
2018-05-16T06:15:50.862Z,12.2
2018-05-16T06:20:50.591Z,12.2
2018-05-16T06:25:50.737Z,12.2
2018-05-16T06:30:50.800Z,12.3
2018-05-16T06:35:50.847Z,12.3
2018-05-16T06:40:50.854Z,12.3
2018-05-16T06:45:50.864Z,12.5
2018-05-16T06:50:51.016Z,12.5
2018-05-16T06:55:50.838Z,12.6
2018-05-16T07:00:50.861Z,12.7
2018-05-16T07:05:50.846Z,12.7
2018-05-16T07:10:50.836Z,12.9
2018-05-16T07:15:50.874Z,12.9
2018-05-16T07:20:50.811Z,12.9
2018-05-16T07:26:02.773Z,12.9
2018-05-16T07:31:02.452Z,12.8
2018-05-16T07:36:02.499Z,12.8
2018-05-16T07:41:02.581Z,12.9
2018-05-16T07:46:02.489Z,12.9
2018-05-16T07:51:02.725Z,13
2018-05-16T07:56:02.593Z,13
2018-05-16T08:01:02.496Z,13.2
2018-05-16T08:06:02.514Z,13.2
2018-05-16T08:11:14.459Z,13.1
2018-05-16T08:16:14.183Z,13.2
2018-05-16T08:21:14.196Z,13.5
2018-05-16T08:26:14.191Z,13.3
2018-05-16T08:31:14.276Z,13.3
2018-05-16T08:36:14.209Z,13.3
2018-05-16T08:41:14.203Z,13.3
2018-05-16T08:46:14.756Z,13.3
2018-05-16T08:51:14.481Z,13.3
2018-05-16T08:56:26.883Z,13.4
2018-05-16T09:01:26.644Z,13.7
2018-05-16T09:06:26.766Z,13.7
2018-05-16T09:11:26.810Z,13.6
2018-05-16T09:16:26.602Z,13.5
2018-05-16T09:21:26.618Z,13.5
2018-05-16T09:26:26.783Z,13.6
2018-05-16T09:31:27.047Z,13.6
2018-05-16T09:36:26.785Z,13.6
2018-05-16T09:41:39.007Z,13.9
2018-05-16T09:46:38.734Z,14.1
2018-05-16T09:51:38.732Z,14.4
2018-05-16T09:56:38.732Z,14.9
2018-05-16T10:01:38.721Z,15.4
2018-05-16T10:06:38.748Z,15.5
2018-05-16T10:11:38.695Z,16.2
2018-05-16T10:16:38.759Z,16.9
2018-05-16T10:21:38.844Z,16.6
2018-05-16T10:26:50.364Z,16.7
2018-05-16T10:31:50.289Z,16.8
2018-05-16T10:36:50.201Z,17.1
2018-05-16T10:41:50.085Z,17.3
2018-05-16T10:46:50.280Z,17
2018-05-16T10:51:50.101Z,16.7
2018-05-16T10:56:50.233Z,16.7
2018-05-16T11:01:50.499Z,16.6
2018-05-16T11:06:50.234Z,16.6
2018-05-16T11:12:02.345Z,16.9
2018-05-16T11:17:02.088Z,16.6
2018-05-16T11:22:02.069Z,16.7
2018-05-16T11:27:02.095Z,16.4
2018-05-16T11:32:02.075Z,16.1
2018-05-16T11:37:02.090Z,16.6
2018-05-16T11:42:02.093Z,16.1
2018-05-16T11:47:02.239Z,16.1
2018-05-16T11:52:02.237Z,15.6
2018-05-16T11:57:14.630Z,15.4
2018-05-16T12:02:14.334Z,15.3
2018-05-16T12:07:14.328Z,15.3
2018-05-16T12:12:14.497Z,15
2018-05-16T12:17:14.335Z,15.1
2018-05-16T12:22:14.340Z,15.2
2018-05-16T12:27:14.360Z,15.2
2018-05-16T12:32:14.353Z,15.2
2018-05-16T12:37:14.575Z,15.3
2018-05-16T12:42:25.882Z,15.2
2018-05-16T12:47:25.530Z,15.2
2018-05-16T12:52:25.581Z,14.7
2018-05-16T12:57:25.770Z,14.4
2018-05-16T13:02:25.814Z,14.2
2018-05-16T13:07:25.601Z,14.5
2018-05-16T13:12:25.721Z,14.4
2018-05-16T13:17:25.823Z,14.6
2018-05-16T13:22:25.824Z,14.5
2018-05-16T13:27:39.157Z,14.7
2018-05-16T13:32:38.888Z,14.8
2018-05-16T13:37:39.043Z,15.3
2018-05-16T13:42:38.920Z,15.7
2018-05-16T13:47:39.053Z,15.8
2018-05-16T13:52:38.926Z,15.3
2018-05-16T13:57:39.080Z,15.1
2018-05-16T14:02:41.875Z,15.7
2018-05-16T14:07:41.595Z,16
2018-05-16T14:12:53.878Z,15.9
2018-05-16T14:17:53.752Z,15.9
2018-05-16T14:22:53.606Z,15.8
2018-05-16T14:27:53.616Z,16.1
2018-05-16T14:32:53.623Z,16.1
2018-05-16T14:37:53.632Z,16.5
2018-05-16T14:42:56.703Z,16.6
2018-05-16T14:47:53.609Z,16.3
2018-05-16T14:52:53.625Z,16.1
2018-05-16T14:58:04.888Z,15.6
2018-05-16T15:03:04.587Z,15.4
2018-05-16T15:08:04.568Z,15.4
2018-05-16T15:13:05.563Z,15.4
2018-05-16T15:18:04.602Z,15.5
2018-05-16T15:23:04.742Z,15.6
2018-05-16T15:28:04.638Z,15.9
2018-05-16T15:33:04.588Z,16
2018-05-16T15:38:04.599Z,15.7
2018-05-16T15:43:16.104Z,15.7
2018-05-16T15:48:15.806Z,15.7
2018-05-16T15:53:17.023Z,15.7
2018-05-16T15:58:15.801Z,15.7
2018-05-16T16:03:15.953Z,15.6
2018-05-16T16:08:16.061Z,15.5
2018-05-16T16:13:15.982Z,15.3
2018-05-16T16:18:15.979Z,15.4
2018-05-16T16:23:15.937Z,15.2
2018-05-16T16:28:28.013Z,15.2
2018-05-16T16:33:27.742Z,15.1
2018-05-16T16:38:27.731Z,15.2
2018-05-16T16:43:27.755Z,15.3
2018-05-16T16:48:27.749Z,15.3
2018-05-16T16:53:27.750Z,15.5
2018-05-16T16:58:27.777Z,15.5
2018-05-16T17:03:27.752Z,15.3
2018-05-16T17:08:27.760Z,15.1
2018-05-16T17:13:39.073Z,15
2018-05-16T17:18:38.793Z,15
2018-05-16T17:23:38.784Z,14.8
2018-05-16T17:28:38.909Z,14.8
2018-05-16T17:33:38.988Z,14.7
2018-05-16T17:38:39.007Z,14.7
2018-05-16T17:43:39.025Z,14.7
2018-05-16T17:48:39.010Z,14.6
2018-05-16T17:53:39.130Z,14.5
2018-05-16T17:58:50.775Z,14.5
2018-05-16T18:03:50.522Z,14.4
2018-05-16T18:08:50.501Z,14.3
2018-05-16T18:13:50.536Z,14.2
2018-05-16T18:18:50.483Z,14.2
2018-05-16T18:23:50.725Z,14.1
2018-05-16T18:28:50.520Z,14.1
2018-05-16T18:33:50.524Z,14
2018-05-16T18:38:50.544Z,13.9
2018-05-16T18:44:03.359Z,13.9
2018-05-16T18:49:03.086Z,13.8
2018-05-16T18:54:03.086Z,13.7
2018-05-16T18:59:03.106Z,13.8
2018-05-16T19:04:03.095Z,13.8
2018-05-16T19:09:03.219Z,13.8
2018-05-16T19:14:03.096Z,13.8
2018-05-16T19:19:05.327Z,13.7
2018-05-16T19:24:04.865Z,13.7
2018-05-16T19:29:17.399Z,13.7
2018-05-16T19:34:17.106Z,13.7
2018-05-16T19:39:17.111Z,13.7
2018-05-16T19:44:17.237Z,13.6
2018-05-16T19:49:17.131Z,13.5
2018-05-16T19:54:17.136Z,13.6
2018-05-16T19:59:17.174Z,13.5
2018-05-16T20:04:17.170Z,13.5
2018-05-16T20:09:17.129Z,13.5
2018-05-16T20:14:29.061Z,13.5
2018-05-16T20:19:28.689Z,13.5
2018-05-16T20:24:28.740Z,13.4
2018-05-16T20:29:28.814Z,13.4
2018-05-16T20:34:28.725Z,13.3
2018-05-16T20:39:28.744Z,13.3
2018-05-16T20:44:28.750Z,13.3
2018-05-16T20:49:29.943Z,13.3
2018-05-16T20:54:29.668Z,13.3
2018-05-16T20:59:41.967Z,13.3
2018-05-16T21:04:41.711Z,13.3
2018-05-16T21:09:41.702Z,13.3
2018-05-16T21:14:41.676Z,13.3
2018-05-16T21:19:41.696Z,13.3
2018-05-16T21:24:41.691Z,13.3
2018-05-16T21:29:41.850Z,13.3
2018-05-16T21:34:42.235Z,13.3
2018-05-16T21:39:41.999Z,13.3
2018-05-16T21:44:54.200Z,13.3
2018-05-16T21:49:53.920Z,13.2
2018-05-16T21:54:53.940Z,13.2
2018-05-16T21:59:53.900Z,13.2
2018-05-16T22:04:53.932Z,13.1
2018-05-16T22:09:53.931Z,13.1
2018-05-16T22:14:53.929Z,13.1
2018-05-16T22:19:53.934Z,13.1
2018-05-16T22:24:53.928Z,13.1
2018-05-16T22:30:04.987Z,13.1
2018-05-16T22:35:04.931Z,13.1
2018-05-16T22:40:04.723Z,13
2018-05-16T22:45:04.719Z,12.8
2018-05-16T22:50:14.770Z,12.9
2018-05-16T22:55:14.490Z,12.9
2018-05-16T23:00:14.510Z,12.9
2018-05-16T23:05:14.653Z,12.8
2018-05-16T23:10:14.684Z,12.8
2018-05-16T23:15:14.821Z,12.8
2018-05-16T23:20:14.860Z,12.7
2018-05-16T23:25:16.357Z,12.7
2018-05-16T23:30:16.261Z,12.8
2018-05-16T23:35:26.164Z,12.7
2018-05-16T23:40:25.895Z,12.8
2018-05-16T23:45:25.882Z,12.7
2018-05-16T23:50:25.897Z,12.7
2018-05-16T23:55:25.945Z,12.7
